Time;durP1;ratioP1;P1;durP2;ratioP2;P2;SDS_P1;SDS_P2;PMS_P1;PMS_P2;Temp;Humidity;BMP_temperature;BMP_pressure;BME280_temperature;BME280_humidity;BME280_pressure;Samples;Min_cycle;Max_cycle;Signal;HPM_P1;HPM_P2
2023/03/23 00:01:30;;;;;;;;;0.00;0.00;;;;;22.52;41.97;100237.50;5058318;28;45223;-69
2023/03/23 00:03:59;;;;;;;;;1.00;1.00;;;;;22.60;42.26;100241.81;5058027;28;46944;-69
2023/03/23 00:06:26;;;;;;;;;0.00;0.00;;;;;22.59;42.67;100243.66;5057783;28;45356;-69
2023/03/23 00:08:59;;;;;;;;;1.33;0.00;;;;;22.57;42.27;100245.69;5058180;28;45345;-69
2023/03/23 00:11:28;;;;;;;;;1.00;1.00;;;;;22.55;42.59;100231.81;5058194;28;45376;-68
2023/03/23 00:13:57;;;;;;;;;0.00;0.00;;;;;22.53;42.07;100220.59;5057822;28;46445;-69
2023/03/23 00:16:31;;;;;;;;;0.00;0.00;;;;;22.51;42.14;100219.97;5058099;28;45423;-69
2023/03/23 00:19:02;;;;;;;;;0.00;0.00;;;;;22.52;42.35;100233.03;5057960;28;45305;-69
2023/03/23 00:21:34;;;;;;;;;0.00;0.00;;;;;22.51;42.40;100219.97;5056407;28;45245;-69
2023/03/23 00:24:11;;;;;;;;;0.00;0.00;;;;;22.50;42.57;100219.16;5057583;28;46463;-69
2023/03/23 00:26:42;;;;;;;;;0.00;0.00;;;;;22.39;42.32;100202.00;5057787;28;45401;-69
2023/03/23 00:29:16;;;;;;;;;1.00;0.00;;;;;22.44;42.23;100216.47;5057026;28;45611;-69
2023/03/23 00:31:46;;;;;;;;;0.00;0.00;;;;;22.45;42.41;100224.25;5057617;28;45495;-69
2023/03/23 00:34:19;;;;;;;;;0.00;0.00;;;;;22.46;42.20;100235.66;5057399;28;45237;-69
2023/03/23 00:36:56;;;;;;;;;0.00;0.00;;;;;22.45;42.68;100234.03;5057090;28;45254;-69
2023/03/23 00:39:24;;;;;;;;;1.00;0.00;;;;;22.44;42.29;100241.16;5057720;28;45318;-69
2023/03/23 00:41:49;;;;;;;;;0.00;0.00;;;;;22.44;42.54;100235.03;5057456;28;45466;-69
2023/03/23 00:44:16;;;;;;;;;0.00;0.00;;;;;22.43;42.13;100241.38;5057369;28;46163;-69
2023/03/23 00:46:48;;;;;;;;;0.00;0.00;;;;;22.42;42.01;100243.19;5057628;28;46027;-68
2023/03/23 00:49:15;;;;;;;;;0.33;0.00;;;;;22.42;42.32;100247.66;5057550;28;45425;-69
2023/03/23 00:51:41;;;;;;;;;0.00;0.00;;;;;22.39;42.53;100244.41;5057294;28;45488;-69
2023/03/23 00:54:08;;;;;;;;;0.00;0.00;;;;;22.40;42.24;100246.03;5057305;28;45324;-69
2023/03/23 00:56:34;;;;;;;;;0.00;0.00;;;;;22.38;41.86;100228.69;5057107;28;45526;-69
2023/03/23 00:58:59;;;;;;;;;0.00;0.00;;;;;22.39;42.06;100247.06;5057510;28;45327;-68
2023/03/23 01:01:24;;;;;;;;;0.00;0.00;;;;;22.36;42.11;100242.13;5057285;28;45379;-69
2023/03/23 01:03:50;;;;;;;;;0.00;0.00;;;;;22.37;42.21;100243.78;5057194;28;46167;-69
2023/03/23 01:06:15;;;;;;;;;0.00;0.00;;;;;22.41;41.79;100230.94;5056967;28;45292;-69
2023/03/23 01:08:45;;;;;;;;;0.00;0.00;;;;;22.31;41.98;100231.31;5057367;28;45404;-69
2023/03/23 01:11:13;;;;;;;;;0.00;0.00;;;;;22.39;41.69;100252.34;5057237;28;45458;-69
2023/03/23 01:13:40;;;;;;;;;2.00;0.00;;;;;22.43;42.07;100254.63;5056992;28;45925;-69
2023/03/23 01:16:06;;;;;;;;;0.00;0.00;;;;;22.41;41.91;100270.69;5057008;28;45461;-69
2023/03/23 01:18:31;;;;;;;;;0.00;0.00;;;;;22.42;41.98;100255.63;5056804;28;45439;-69
2023/03/23 01:20:56;;;;;;;;;0.00;0.00;;;;;22.41;41.69;100254.78;5057099;28;45508;-68
2023/03/23 01:23:21;;;;;;;;;0.00;0.00;;;;;22.39;41.59;100262.13;5056814;28;46062;-69
2023/03/23 01:25:47;;;;;;;;;0.00;0.00;;;;;22.40;41.97;100261.94;5057129;28;45270;-69
2023/03/23 01:28:12;;;;;;;;;0.00;0.00;;;;;22.40;41.55;100269.09;5057041;28;45266;-69
2023/03/23 01:30:37;;;;;;;;;0.00;0.00;;;;;22.34;41.52;100273.34;5056853;28;45387;-68
2023/03/23 01:33:03;;;;;;;;;0.67;0.00;;;;;22.39;42.02;100280.69;5056387;28;45361;-69
2023/03/23 01:35:28;;;;;;;;;0.00;0.00;;;;;22.38;42.16;100274.56;5056653;28;45428;-69
2023/03/23 01:37:54;;;;;;;;;1.00;1.00;;;;;22.38;41.96;100273.75;5056730;28;45451;-69
2023/03/23 01:40:20;;;;;;;;;0.00;0.00;;;;;22.33;42.18;100257.63;5055664;28;45388;-69
2023/03/23 01:42:45;;;;;;;;;0.00;0.00;;;;;22.37;41.72;100256.22;5056500;28;45360;-69
2023/03/23 01:45:19;;;;;;;;;0.00;0.00;;;;;22.36;42.11;100257.22;5056554;28;45335;-69
2023/03/23 01:47:48;;;;;;;;;0.00;0.00;;;;;22.33;42.09;100239.88;5056395;28;45347;-67
2023/03/23 01:50:13;;;;;;;;;0.00;0.00;;;;;22.35;41.56;100253.75;5056604;28;45530;-69
2023/03/23 01:52:39;;;;;;;;;0.00;0.00;;;;;22.34;41.62;100252.13;5056195;28;46148;-68
2023/03/23 01:55:05;;;;;;;;;0.00;0.00;;;;;22.32;41.84;100253.34;5056600;28;45316;-69
2023/03/23 01:57:32;;;;;;;;;0.00;0.00;;;;;22.33;41.50;100255.78;5055321;28;45351;-69
2023/03/23 02:00:06;;;;;;;;;0.00;0.00;;;;;22.23;42.20;100234.13;5056231;28;45419;-69
2023/03/23 02:02:35;;;;;;;;;1.00;0.00;;;;;22.32;41.59;100246.22;5055977;28;47139;-69
2023/03/23 02:05:06;;;;;;;;;0.00;0.00;;;;;22.31;41.82;100243.75;5056232;28;45277;-69
2023/03/23 02:07:32;;;;;;;;;0.33;0.00;;;;;22.31;42.10;100243.75;5056397;28;45422;-69
2023/03/23 02:09:57;;;;;;;;;0.00;0.00;;;;;22.28;41.60;100224.56;5056191;28;45432;-68
2023/03/23 02:12:22;;;;;;;;;0.00;0.00;;;;;22.31;41.99;100226.00;5056251;28;45310;-69
2023/03/23 02:14:48;;;;;;;;;0.00;0.00;;;;;22.31;41.66;100227.84;5056141;28;45384;-69
2023/03/23 02:17:29;;;;;;;;;1.00;1.00;;;;;22.31;41.61;100214.59;5056022;28;45264;-68
2023/03/23 02:20:09;;;;;;;;;0.00;0.00;;;;;22.32;41.71;100224.19;5056256;28;45400;-69
2023/03/23 02:22:51;;;;;;;;;1.00;0.00;;;;;22.29;41.54;100226.22;5037761;28;46471;-69
2023/03/23 02:25:38;;;;;;;;;0.00;0.00;;;;;22.31;41.88;100228.66;5055972;28;45290;-68
2023/03/23 02:28:39;;;;;;;;;1.00;0.00;;;;;22.23;41.58;100199.69;5056134;28;45332;-69
2023/03/23 02:31:28;;;;;;;;;0.00;0.00;;;;;22.33;41.36;100212.59;5055470;28;45587;-68
2023/03/23 02:34:02;;;;;;;;;1.00;0.00;;;;;22.33;41.66;100215.22;4973667;28;46233;-69
2023/03/23 02:36:46;;;;;;;;;0.00;0.00;;;;;22.34;41.59;100222.16;4974023;28;45319;-68
2023/03/23 02:39:20;;;;;;;;;0.00;0.00;;;;;22.33;41.20;100216.03;4974188;28;45347;-69
2023/03/23 02:41:50;;;;;;;;;1.00;1.00;;;;;22.25;41.50;100185.22;4974109;28;45303;-68
2023/03/23 02:44:17;;;;;;;;;0.00;0.00;;;;;22.27;41.03;100185.03;4973886;28;47224;-69
2023/03/23 02:46:43;;;;;;;;;0.00;0.00;;;;;22.33;41.73;100205.44;4973582;28;45536;-69
2023/03/23 02:49:12;;;;;;;;;0.00;0.00;;;;;22.33;41.05;100197.47;4974100;28;45539;-69
2023/03/23 02:51:39;;;;;;;;;3.00;1.00;;;;;22.34;41.33;100207.06;4978272;28;45581;-69
2023/03/23 02:54:06;;;;;;;;;0.67;0.00;;;;;22.33;41.40;100200.13;4980179;28;45421;-68
2023/03/23 02:56:33;;;;;;;;;0.00;0.00;;;;;22.33;41.72;100197.47;4980069;28;45439;-69
2023/03/23 02:58:59;;;;;;;;;0.67;0.33;;;;;22.31;41.27;100204.81;4980380;28;45327;-69
2023/03/23 03:01:33;;;;;;;;;0.00;0.00;;;;;22.31;41.34;100196.03;4980057;28;45402;-68
2023/03/23 03:04:03;;;;;;;;;2.00;0.00;;;;;22.29;41.58;100197.06;4980250;28;45473;-69
2023/03/23 03:07:03;;;;;;;;;0.00;0.00;;;;;22.29;41.54;100198.91;4980365;28;45422;-69
2023/03/23 03:09:48;;;;;;;;;0.00;0.00;;;;;22.28;41.29;100184.81;4980281;28;45390;-68
2023/03/23 03:12:20;;;;;;;;;0.00;0.00;;;;;22.27;41.29;100187.69;5062246;28;45410;-69
2023/03/23 03:15:07;;;;;;;;;0.00;0.00;;;;;22.28;41.33;100194.59;5061555;28;46460;-69
2023/03/23 03:17:39;;;;;;;;;0.00;0.00;;;;;22.24;41.30;100198.69;5062070;28;45396;-69
2023/03/23 03:20:10;;;;;;;;;0.00;0.00;;;;;22.26;41.37;100197.47;5062065;28;45420;-69
2023/03/23 03:22:41;;;;;;;;;1.67;1.00;;;;;22.27;41.14;100198.28;5061983;28;45341;-69
2023/03/23 03:25:08;;;;;;;;;0.00;0.00;;;;;22.18;41.27;100179.06;5061905;28;47338;-69
2023/03/23 03:27:34;;;;;;;;;0.00;0.00;;;;;22.25;41.27;100187.88;5061908;28;45305;-68
2023/03/23 03:30:04;;;;;;;;;1.00;0.00;;;;;22.26;41.66;100184.22;5061755;28;45277;-69
2023/03/23 03:32:38;;;;;;;;;0.33;0.00;;;;;22.27;41.17;100192.97;5060751;28;45419;-69
2023/03/23 03:35:05;;;;;;;;;0.00;0.00;;;;;22.25;41.56;100179.13;5061724;28;46244;-68
2023/03/23 03:37:37;;;;;;;;;0.00;0.00;;;;;22.26;41.41;100178.09;5061537;28;46026;-68
2023/03/23 03:40:07;;;;;;;;;1.00;0.00;;;;;22.25;41.75;100177.25;5061810;28;45166;-68
2023/03/23 03:42:33;;;;;;;;;2.00;0.00;;;;;22.26;41.37;100189.50;5061877;28;45370;-69
2023/03/23 03:44:58;;;;;;;;;1.00;0.00;;;;;22.21;41.50;100172.56;5061166;28;45315;-68
2023/03/23 03:47:23;;;;;;;;;0.00;0.00;;;;;22.25;41.68;100189.72;5061809;28;45351;-69
2023/03/23 03:49:49;;;;;;;;;0.67;0.00;;;;;22.25;41.47;100179.13;5061868;28;45347;-69
2023/03/23 03:52:14;;;;;;;;;2.00;0.33;;;;;22.25;41.54;100174.63;5043796;28;45431;-69
2023/03/23 03:54:40;;;;;;;;;1.00;0.00;;;;;22.27;41.00;100182.38;5061673;28;45463;-69
2023/03/23 03:57:06;;;;;;;;;0.00;0.00;;;;;22.26;41.56;100189.50;5061424;28;45303;-69
2023/03/23 03:59:32;;;;;;;;;2.67;2.00;;;;;22.28;41.16;100184.00;5061261;28;45450;-69
2023/03/23 04:01:58;;;;;;;;;1.00;1.00;;;;;22.28;40.83;100181.34;5060425;28;45429;-69
2023/03/23 04:04:23;;;;;;;;;0.00;0.00;;;;;22.28;41.31;100176.06;5057817;28;46099;-69
2023/03/23 04:06:48;;;;;;;;;0.00;0.00;;;;;22.28;40.94;100176.06;5058362;28;45464;-69
2023/03/23 04:09:14;;;;;;;;;0.00;0.00;;;;;22.28;41.32;100178.69;5057649;28;45345;-69
2023/03/23 04:11:40;;;;;;;;;1.00;0.00;;;;;22.28;40.81;100184.00;5058298;28;45410;-67
2023/03/23 04:14:05;;;;;;;;;0.00;0.00;;;;;22.30;41.06;100187.28;5057816;28;46109;-69
2023/03/23 04:16:34;;;;;;;;;0.00;0.00;;;;;22.29;41.11;100181.16;5058138;28;45436;-69
2023/03/23 04:19:00;;;;;;;;;0.00;0.00;;;;;22.28;41.16;100176.88;5057274;28;45317;-69
2023/03/23 04:21:28;;;;;;;;;0.00;0.00;;;;;22.28;40.84;100181.34;5057979;28;45290;-68
2023/03/23 04:23:54;;;;;;;;;1.00;0.00;;;;;22.28;41.05;100184.00;5057341;28;45461;-68
2023/03/23 04:26:20;;;;;;;;;0.00;0.00;;;;;22.27;41.25;100182.38;5057833;28;45426;-69
2023/03/23 04:28:45;;;;;;;;;2.33;0.00;;;;;22.26;41.28;100192.16;5057607;28;45343;-69
2023/03/23 04:31:12;;;;;;;;;0.00;0.00;;;;;22.26;41.33;100194.00;5057782;28;45583;-69
2023/03/23 04:33:40;;;;;;;;;0.33;0.00;;;;;22.24;40.85;100194.19;5057618;28;45432;-69
2023/03/23 04:36:06;;;;;;;;;0.00;0.00;;;;;22.25;41.35;100195.81;5057383;28;45495;-69
2023/03/23 04:38:33;;;;;;;;;0.00;0.00;;;;;22.20;41.08;100189.50;5057753;28;45376;-69
2023/03/23 04:41:01;;;;;;;;;1.00;1.00;;;;;22.24;41.05;100193.38;5057804;28;45349;-69
2023/03/23 04:43:28;;;;;;;;;0.00;0.00;;;;;22.24;40.83;100199.50;5056288;28;46198;-69
2023/03/23 04:45:56;;;;;;;;;0.00;0.00;;;;;22.20;41.29;100198.25;5057498;28;45355;-69
2023/03/23 04:48:27;;;;;;;;;0.00;0.00;;;;;22.25;41.42;100205.63;5057637;28;45270;-69
2023/03/23 04:50:53;;;;;;;;;2.00;0.00;;;;;22.24;41.42;100210.09;5057539;28;45403;-68
2023/03/23 04:53:19;;;;;;;;;1.67;1.00;;;;;22.24;41.33;100206.63;5057162;28;46519;-68
2023/03/23 04:55:44;;;;;;;;;0.00;0.00;;;;;22.23;41.33;100205.81;5057349;28;45382;-68
2023/03/23 04:58:12;;;;;;;;;0.67;0.67;;;;;22.16;40.81;100194.34;5057207;28;45491;-69
2023/03/23 05:00:38;;;;;;;;;0.00;0.00;;;;;22.23;40.77;100219.06;5056878;28;45362;-68
2023/03/23 05:03:03;;;;;;;;;1.00;1.00;;;;;22.22;40.96;100212.13;5057255;28;45388;-68
2023/03/23 05:05:30;;;;;;;;;0.00;0.00;;;;;22.23;40.93;100208.44;5057420;28;45577;-69
2023/03/23 05:07:56;;;;;;;;;1.00;0.00;;;;;22.23;40.92;100220.88;5057490;28;45403;-68
2023/03/23 05:10:23;;;;;;;;;1.00;1.00;;;;;22.22;41.16;100216.59;5057193;28;45293;-68
2023/03/23 05:12:48;;;;;;;;;0.00;0.00;;;;;22.21;40.85;100207.84;5056953;28;45389;-69
2023/03/23 05:15:15;;;;;;;;;2.00;0.33;;;;;22.22;41.43;100214.78;5056774;28;45376;-68
2023/03/23 05:17:43;;;;;;;;;0.00;0.00;;;;;22.23;41.30;100213.75;5057197;28;45317;-67
2023/03/23 05:20:12;;;;;;;;;0.00;0.00;;;;;22.25;40.95;100218.88;5056990;28;45480;-68
2023/03/23 05:22:38;;;;;;;;;0.00;0.00;;;;;22.24;41.09;100220.69;5056753;28;46007;-69
2023/03/23 05:25:05;;;;;;;;;0.33;0.00;;;;;22.25;40.64;100219.66;5056591;28;45368;-69
2023/03/23 05:27:32;;;;;;;;;0.33;0.33;;;;;22.25;41.00;100221.53;5056144;28;45397;-69
2023/03/23 05:30:01;;;;;;;;;0.33;0.33;;;;;22.25;41.02;100211.72;5056990;28;45361;-68
2023/03/23 05:32:28;;;;;;;;;0.00;0.00;;;;;22.24;40.51;100215.41;5056617;28;47203;-68
2023/03/23 05:34:58;;;;;;;;;0.00;0.00;;;;;22.28;40.62;100218.44;5056627;28;45372;-68
2023/03/23 05:37:26;;;;;;;;;0.00;0.00;;;;;22.28;40.55;100229.88;5056617;28;45869;-68
2023/03/23 05:39:53;;;;;;;;;1.00;1.00;;;;;22.27;40.75;100228.25;5056436;28;45417;-68
2023/03/23 05:42:21;;;;;;;;;0.00;0.00;;;;;22.24;40.83;100233.13;5056525;28;46086;-69
2023/03/23 05:44:47;;;;;;;;;0.33;0.33;;;;;22.22;40.81;100232.50;5056550;28;45376;-69
2023/03/23 05:47:13;;;;;;;;;0.00;0.00;;;;;22.27;40.84;100235.38;5056505;28;45395;-67
2023/03/23 05:49:38;;;;;;;;;3.00;0.00;;;;;22.24;40.96;100241.91;5056379;28;45434;-68
2023/03/23 05:52:03;;;;;;;;;0.00;0.00;;;;;22.26;40.84;100247.00;5038380;28;48207;-69
2023/03/23 05:54:29;;;;;;;;;0.00;0.00;;;;;22.25;40.60;100243.50;5056218;28;45372;-69
2023/03/23 05:56:54;;;;;;;;;0.00;0.00;;;;;22.24;40.62;100247.19;5056278;28;45308;-68
2023/03/23 05:59:20;;;;;;;;;0.00;0.00;;;;;22.25;40.85;100237.41;5056511;28;45407;-69
2023/03/23 06:01:45;;;;;;;;;0.00;0.00;;;;;22.24;41.15;100238.41;5056298;28;45983;-68
2023/03/23 06:04:11;;;;;;;;;1.00;0.00;;;;;22.24;41.10;100246.38;5056298;28;45340;-69
2023/03/23 06:06:37;;;;;;;;;0.00;0.00;;;;;22.21;40.66;100241.47;5056474;28;45345;-67
2023/03/23 06:09:02;;;;;;;;;0.00;0.00;;;;;22.24;40.54;100254.31;5055919;28;45412;-68
2023/03/23 06:11:28;;;;;;;;;1.00;0.00;;;;;22.23;41.03;100255.31;5055652;28;45446;-68
2023/03/23 06:13:54;;;;;;;;;0.00;0.00;;;;;22.22;40.72;100265.13;5056109;28;45332;-67
2023/03/23 06:16:19;;;;;;;;;0.00;0.00;;;;;22.22;41.21;100262.47;5037439;28;45389;-69
2023/03/23 06:18:46;;;;;;;;;1.33;0.00;;;;;22.21;41.12;100267.94;5056193;28;45608;-69
2023/03/23 06:21:12;;;;;;;;;0.33;0.33;;;;;22.21;41.09;100268.78;5056143;28;46000;-68
2023/03/23 06:23:38;;;;;;;;;0.00;0.00;;;;;22.21;40.58;100265.31;5055490;28;45401;-68
2023/03/23 06:26:07;;;;;;;;;0.33;0.00;;;;;22.17;40.57;100257.75;5055403;28;45219;-68
2023/03/23 06:28:33;;;;;;;;;0.33;0.33;;;;;22.20;41.18;100266.34;5056005;28;45593;-69
2023/03/23 06:31:06;;;;;;;;;0.00;0.00;;;;;22.20;40.65;100274.28;5055027;28;46449;-69
2023/03/23 06:33:33;;;;;;;;;2.00;1.00;;;;;22.16;40.78;100284.44;5055631;28;45297;-69
2023/03/23 06:35:59;;;;;;;;;1.00;1.00;;;;;22.20;41.03;100280.38;5055875;28;45319;-69
2023/03/23 06:38:26;;;;;;;;;1.33;0.00;;;;;22.21;40.86;100283.84;5055508;28;45258;-69
2023/03/23 06:40:52;;;;;;;;;0.00;0.00;;;;;22.10;40.82;100267.50;5055662;28;47089;-69
2023/03/23 06:43:18;;;;;;;;;0.67;0.00;;;;;22.22;40.63;100282.84;5055848;28;45310;-69
2023/03/23 06:45:43;;;;;;;;;1.00;0.00;;;;;22.22;41.12;100286.31;5054443;28;45297;-68
2023/03/23 06:48:08;;;;;;;;;1.67;1.00;;;;;22.24;40.72;100296.72;5037717;28;45330;-69
2023/03/23 06:50:34;;;;;;;;;0.00;0.00;;;;;22.25;40.55;100293.06;5055312;28;46024;-69
2023/03/23 06:52:59;;;;;;;;;0.67;0.00;;;;;22.25;40.49;100301.81;5055152;28;45233;-69
2023/03/23 06:55:25;;;;;;;;;0.00;0.00;;;;;22.24;40.43;100297.53;5055422;28;45365;-68
2023/03/23 06:57:50;;;;;;;;;1.00;1.00;;;;;22.25;40.56;100299.16;5055544;28;45457;-68
2023/03/23 07:00:16;;;;;;;;;1.67;0.33;;;;;22.27;41.09;100309.59;5055476;28;46107;-69
2023/03/23 07:02:42;;;;;;;;;0.00;0.00;;;;;22.28;40.39;100311.19;5037462;28;45459;-69
2023/03/23 07:05:09;;;;;;;;;0.00;0.00;;;;;22.28;40.44;100312.03;5055824;28;45430;-69
2023/03/23 07:07:36;;;;;;;;;2.00;0.67;;;;;22.29;41.03;100310.19;5055282;28;45447;-69
2023/03/23 07:10:03;;;;;;;;;0.67;0.67;;;;;22.27;40.47;100305.09;5055190;28;46167;-70
2023/03/23 07:12:29;;;;;;;;;1.33;0.00;;;;;22.29;40.77;100307.56;5054531;28;45454;-69
2023/03/23 07:14:55;;;;;;;;;0.67;0.67;;;;;22.28;40.62;100317.31;5055325;28;45437;-69
2023/03/23 07:17:21;;;;;;;;;0.67;0.67;;;;;22.29;40.73;100300.44;5055601;28;45388;-69
2023/03/23 07:19:46;;;;;;;;;1.00;1.00;;;;;22.31;40.62;100304.69;5055200;28;46000;-69
2023/03/23 07:22:12;;;;;;;;;0.00;0.00;;;;;22.31;41.15;100316.13;5054914;28;45412;-69
2023/03/23 07:24:37;;;;;;;;;0.00;0.00;;;;;22.31;40.83;100315.28;5037141;28;45459;-69
2023/03/23 07:27:02;;;;;;;;;0.00;0.00;;;;;22.25;41.23;100308.97;5055411;28;45300;-69
2023/03/23 07:29:28;;;;;;;;;2.00;1.00;;;;;22.32;40.92;100315.13;5055102;28;45459;-69
2023/03/23 07:31:54;;;;;;;;;0.00;0.00;;;;;22.32;41.26;100325.72;5055241;28;45333;-69
2023/03/23 07:34:19;;;;;;;;;0.00;0.00;;;;;22.31;41.25;100320.59;5055167;28;45347;-68
2023/03/23 07:36:46;;;;;;;;;1.00;1.00;;;;;22.29;41.31;100324.28;5054616;28;45269;-69
2023/03/23 07:39:12;;;;;;;;;0.00;0.00;;;;;22.29;40.99;100326.94;5044827;28;47221;-71
2023/03/23 07:41:38;;;;;;;;;0.00;0.00;;;;;22.28;41.45;100333.22;5049446;28;46582;-71
2023/03/23 07:44:04;;;;;;;;;0.33;0.33;;;;;22.28;40.94;100325.28;5052339;28;45938;-71
2023/03/23 07:46:30;;;;;;;;;0.00;0.00;;;;;22.28;40.94;100338.53;5050490;28;45568;-70
2023/03/23 07:48:56;;;;;;;;;0.00;0.00;;;;;22.29;40.89;100342.00;5052488;28;46280;-69
2023/03/23 07:51:22;;;;;;;;;1.00;0.00;;;;;22.29;40.86;100339.34;5052370;28;45462;-70
2023/03/23 07:53:48;;;;;;;;;1.00;0.00;;;;;22.27;40.82;100344.84;5053123;28;45671;-70
2023/03/23 07:56:14;;;;;;;;;0.00;0.00;;;;;22.29;41.35;100347.31;5052233;28;45764;-71
2023/03/23 07:58:41;;;;;;;;;2.00;0.00;;;;;22.25;41.06;100344.22;5051362;28;46102;-70
2023/03/23 08:01:07;;;;;;;;;1.00;0.00;;;;;22.21;40.96;100334.19;5053182;28;45367;-70
2023/03/23 08:03:32;;;;;;;;;1.33;0.00;;;;;22.30;41.29;100346.31;5052440;28;46066;-70
2023/03/23 08:05:59;;;;;;;;;0.33;0.33;;;;;21.99;41.33;100297.19;5052303;28;45616;-70
2023/03/23 08:08:24;;;;;;;;;0.00;0.00;;;;;22.23;41.03;100332.16;5050528;28;45519;-69
2023/03/23 08:10:50;;;;;;;;;0.00;0.00;;;;;22.29;40.95;100339.34;5052443;28;46047;-70
2023/03/23 08:13:15;;;;;;;;;0.00;0.00;;;;;22.33;41.17;100345.09;5052114;28;45479;-70
2023/03/23 08:15:41;;;;;;;;;0.00;0.00;;;;;22.32;41.32;100352.22;5050447;28;45615;-70
2023/03/23 08:18:06;;;;;;;;;0.33;0.00;;;;;22.32;41.25;100346.91;5053117;28;45848;-70
2023/03/23 08:20:32;;;;;;;;;0.00;0.00;;;;;22.22;41.03;100328.72;5052023;28;45438;-70
2023/03/23 08:22:59;;;;;;;;;0.00;0.00;;;;;22.32;41.07;100343.44;5052234;28;45832;-70
2023/03/23 08:25:25;;;;;;;;;0.33;0.33;;;;;22.31;40.95;100347.91;5052080;28;45410;-70
2023/03/23 08:27:51;;;;;;;;;0.00;0.00;;;;;22.30;41.13;100359.56;5052067;28;46887;-69
2023/03/23 08:30:19;;;;;;;;;0.00;0.00;;;;;22.29;41.38;100350.78;5052373;28;45582;-70
2023/03/23 08:32:46;;;;;;;;;1.00;0.00;;;;;22.29;41.20;100344.66;5052529;28;45663;-70
2023/03/23 08:35:12;;;;;;;;;0.00;0.00;;;;;22.25;41.02;100343.41;5051774;28;45850;-70
2023/03/23 08:37:39;;;;;;;;;1.00;0.00;;;;;22.24;41.19;100345.25;5052628;28;46631;-69
2023/03/23 08:40:09;;;;;;;;;1.67;1.00;;;;;22.29;41.07;100358.72;5051165;28;45516;-69
2023/03/23 08:42:37;;;;;;;;;0.00;0.00;;;;;22.28;41.57;100349.13;5052795;28;45418;-69
2023/03/23 08:45:04;;;;;;;;;1.00;0.33;;;;;22.31;41.27;100355.03;5052363;28;45586;-69
2023/03/23 08:47:29;;;;;;;;;0.00;0.00;;;;;22.34;41.65;100359.97;5051844;28;45727;-69
2023/03/23 08:49:55;;;;;;;;;1.00;1.00;;;;;22.37;41.65;100351.63;5051069;28;45467;-69
2023/03/23 08:52:20;;;;;;;;;1.00;1.00;;;;;22.42;41.13;100353.69;5052179;28;45729;-70
2023/03/23 08:54:47;;;;;;;;;0.00;0.00;;;;;22.46;41.00;100347.81;5052391;28;45532;-69
2023/03/23 08:57:14;;;;;;;;;0.00;0.00;;;;;22.50;41.01;100358.84;5051665;28;46144;-70
2023/03/23 08:59:40;;;;;;;;;0.00;0.00;;;;;22.54;40.88;100352.13;5052260;28;45858;-70
2023/03/23 09:02:06;;;;;;;;;2.00;0.00;;;;;22.56;41.36;100349.28;5052371;28;45520;-70
2023/03/23 09:04:31;;;;;;;;;3.00;0.00;;;;;22.59;40.94;100354.19;5051278;28;45450;-70
2023/03/23 09:06:57;;;;;;;;;2.00;0.00;;;;;22.61;41.30;100354.84;5052022;28;46167;-73
2023/03/23 09:09:23;;;;;;;;;0.00;0.00;;;;;22.56;41.29;100350.09;5051336;28;45507;-72
2023/03/23 09:11:48;;;;;;;;;0.00;0.00;;;;;22.63;40.87;100348.31;5051610;28;45420;-73
2023/03/23 09:14:14;;;;;;;;;1.33;0.00;;;;;22.65;41.06;100347.28;5051458;28;45501;-72
2023/03/23 09:16:39;;;;;;;;;0.00;0.00;;;;;22.67;40.93;100345.25;5051029;28;45560;-72
2023/03/23 09:19:08;;;;;;;;;0.00;0.00;;;;;22.63;40.95;100339.53;5051519;28;45567;-71
2023/03/23 09:21:34;;;;;;;;;0.33;0.33;;;;;22.68;40.81;100345.06;5051379;28;45429;-71
2023/03/23 09:24:01;;;;;;;;;1.00;1.00;;;;;22.69;41.43;100338.72;5051430;28;45523;-70
2023/03/23 09:26:27;;;;;;;;;0.00;0.00;;;;;22.70;41.21;100342.25;5051171;28;45663;-70
2023/03/23 09:28:52;;;;;;;;;0.67;0.67;;;;;22.70;40.89;100335.09;5051246;28;45411;-70
2023/03/23 09:31:22;;;;;;;;;0.67;0.67;;;;;22.71;40.79;100334.09;5051861;28;45627;-71
2023/03/23 09:33:51;;;;;;;;;1.00;1.00;;;;;22.72;41.18;100338.38;5051104;28;45388;-70
2023/03/23 09:36:17;;;;;;;;;1.00;1.00;;;;;22.71;40.87;100327.97;5048625;28;46273;-71
2023/03/23 09:38:45;;;;;;;;;1.00;1.00;;;;;22.72;41.28;100341.03;5051353;28;45477;-71
2023/03/23 09:41:20;;;;;;;;;0.00;0.00;;;;;22.72;41.31;100333.06;5051129;28;45527;-71
2023/03/23 09:44:01;;;;;;;;;1.00;1.00;;;;;22.73;41.23;100341.84;5050831;28;45489;-69
2023/03/23 09:47:05;;;;;;;;;1.00;1.00;;;;;22.72;41.26;100359.59;5050614;28;45477;-70
2023/03/23 09:49:42;;;;;;;;;0.00;0.00;;;;;22.70;40.95;100361.63;5051188;28;46519;-71
2023/03/23 09:52:14;;;;;;;;;1.33;0.33;;;;;22.62;40.92;100340.53;5051554;28;45495;-70
2023/03/23 09:54:44;;;;;;;;;1.00;1.00;;;;;22.62;40.88;100353.81;5050336;28;45683;-69
2023/03/23 09:57:32;;;;;;;;;3.00;0.00;;;;;22.69;40.85;100357.28;5049178;28;45679;-70
2023/03/23 10:00:16;;;;;;;;;2.00;0.67;;;;;22.69;40.89;100357.28;5049183;28;45396;-69
2023/03/23 10:03:07;;;;;;;;;1.00;1.00;;;;;22.69;40.87;100372.41;5047293;28;45368;-71
2023/03/23 10:05:33;;;;;;;;;2.00;0.00;;;;;22.69;41.25;100367.09;5036837;28;45546;-71
2023/03/23 10:08:01;;;;;;;;;2.00;1.00;;;;;22.68;41.59;100357.50;5050279;28;46180;-71
2023/03/23 10:10:37;;;;;;;;;1.33;0.00;;;;;22.68;41.47;100368.13;5050032;28;45554;-71
2023/03/23 10:13:16;;;;;;;;;0.00;0.00;;;;;22.69;40.80;100369.75;5050774;28;45357;-71
2023/03/23 10:15:43;;;;;;;;;4.33;2.00;;;;;22.61;40.81;100349.53;5050450;28;45634;-70
2023/03/23 10:18:12;;;;;;;;;1.00;0.00;;;;;22.68;41.17;100345.06;5050699;28;47320;-71
2023/03/23 10:20:59;;;;;;;;;1.00;1.00;;;;;22.68;40.98;100344.25;5050881;28;45592;-70
2023/03/23 10:23:54;;;;;;;;;0.00;0.00;;;;;22.68;40.95;100338.94;5050544;28;45521;-70
2023/03/23 10:26:28;;;;;;;;;2.33;1.00;;;;;22.68;41.05;100334.47;5050394;28;45349;-70
2023/03/23 10:29:13;;;;;;;;;0.67;0.67;;;;;22.59;40.97;100322.38;5050541;28;45313;-70
2023/03/23 10:31:43;;;;;;;;;1.00;1.00;;;;;22.70;40.77;100344.91;5050533;28;45507;-71
2023/03/23 10:34:19;;;;;;;;;1.00;0.00;;;;;22.69;41.40;100343.25;5050669;28;45995;-71
2023/03/23 10:37:12;;;;;;;;;1.00;0.00;;;;;22.69;41.00;100341.38;5050169;28;45488;-70
2023/03/23 10:39:51;;;;;;;;;3.33;0.33;;;;;22.69;40.96;100353.84;5049711;28;45885;-71
2023/03/23 10:42:25;;;;;;;;;1.67;1.67;;;;;22.69;41.17;100354.66;5048534;28;45572;-71
2023/03/23 10:44:52;;;;;;;;;1.00;1.00;;;;;22.63;40.88;100337.72;5049977;28;45485;-71
2023/03/23 10:47:17;;;;;;;;;1.67;0.00;;;;;22.69;40.66;100332.63;5050161;28;45526;-71
2023/03/23 10:50:01;;;;;;;;;2.00;0.00;;;;;22.69;41.04;100338.72;5050130;28;46227;-71
2023/03/23 10:52:39;;;;;;;;;1.00;1.00;;;;;22.70;41.18;100347.53;5049621;28;45503;-71
2023/03/23 10:55:07;;;;;;;;;0.00;0.00;;;;;22.69;40.72;100349.34;5050389;28;45358;-71
2023/03/23 10:57:34;;;;;;;;;1.00;0.00;;;;;22.69;40.88;100348.53;5049699;28;45863;-71
2023/03/23 11:00:06;;;;;;;;;1.00;1.00;;;;;22.63;40.56;100345.66;5049450;28;46171;-71
2023/03/23 11:02:36;;;;;;;;;0.33;0.33;;;;;22.68;40.38;100344.25;5049957;28;45518;-71
2023/03/23 11:05:07;;;;;;;;;2.67;1.00;;;;;22.67;40.98;100348.72;5050136;28;45567;-70
2023/03/23 11:07:35;;;;;;;;;2.33;0.33;;;;;22.68;40.93;100344.25;5049938;28;46149;-71
2023/03/23 11:10:27;;;;;;;;;1.00;1.00;;;;;22.68;40.30;100353.03;5049556;28;46419;-70
2023/03/23 11:12:57;;;;;;;;;1.00;1.00;;;;;22.69;40.67;100353.84;5048918;28;45541;-71
2023/03/23 11:15:36;;;;;;;;;1.00;1.00;;;;;22.69;40.97;100353.84;5053153;28;45347;-70
2023/03/23 11:18:04;;;;;;;;;4.00;1.33;;;;;22.70;40.73;100350.19;5053543;28;46016;-73
2023/03/23 11:20:35;;;;;;;;;1.00;1.00;;;;;22.69;40.44;100353.84;5053342;28;45525;-72
2023/03/23 11:23:08;;;;;;;;;0.33;0.00;;;;;22.69;40.88;100345.91;5053368;28;45583;-72
2023/03/23 11:25:35;;;;;;;;;1.00;1.00;;;;;22.69;40.55;100353.84;5053301;28;45522;-72
2023/03/23 11:28:01;;;;;;;;;2.00;2.00;;;;;22.69;40.95;100357.28;5052993;28;45842;-73
2023/03/23 11:30:31;;;;;;;;;0.00;0.00;;;;;22.69;40.89;100351.19;5052505;28;47289;-72
2023/03/23 11:33:01;;;;;;;;;1.00;1.00;;;;;22.69;40.43;100341.38;5051954;28;45443;-72